createdAt,value
2019-04-16T00:01:24.894Z,2.65
2019-04-16T00:03:58.149Z,2.37
2019-04-16T00:06:41.027Z,2.62
2019-04-16T00:09:15.674Z,2.60
2019-04-16T00:12:12.567Z,2.60
2019-04-16T00:14:46.195Z,2.70
2019-04-16T00:17:16.504Z,2.70
2019-04-16T00:19:45.232Z,2.60
2019-04-16T00:22:29.493Z,2.62
2019-04-16T00:24:59.266Z,2.65
2019-04-16T00:27:28.702Z,2.37
2019-04-16T00:29:58.042Z,2.65
2019-04-16T00:32:29.269Z,2.50
2019-04-16T00:34:57.832Z,2.83
2019-04-16T00:37:26.481Z,2.65
2019-04-16T00:39:56.114Z,2.75
2019-04-16T00:42:25.232Z,2.60
2019-04-16T00:44:53.879Z,2.70
2019-04-16T00:47:22.594Z,2.80
2019-04-16T00:49:51.271Z,2.80
2019-04-16T00:52:19.991Z,2.25
2019-04-16T00:54:48.593Z,2.70
2019-04-16T00:57:18.010Z,2.40
2019-04-16T00:59:47.325Z,2.90
2019-04-16T01:02:15.851Z,2.47
2019-04-16T01:04:44.521Z,2.75
2019-04-16T01:07:13.205Z,2.65
2019-04-16T01:09:41.884Z,2.72
2019-04-16T01:12:10.423Z,2.95
2019-04-16T01:14:39.257Z,2.30
2019-04-16T01:17:08.877Z,2.77
2019-04-16T01:19:38.286Z,2.55
2019-04-16T01:22:07.908Z,2.22
2019-04-16T01:24:36.523Z,2.52
2019-04-16T01:27:05.143Z,2.65
2019-04-16T01:29:34.618Z,2.40
2019-04-16T01:32:21.001Z,2.50
2019-04-16T01:35:19.043Z,2.60
2019-04-16T01:38:16.141Z,2.70
2019-04-16T01:40:56.361Z,2.70
2019-04-16T01:43:25.865Z,2.77
2019-04-16T01:45:55.069Z,2.62
2019-04-16T01:48:23.765Z,2.65
2019-04-16T01:50:52.475Z,2.85
2019-04-16T01:53:21.747Z,3.02
2019-04-16T01:55:50.373Z,2.80
2019-04-16T01:58:19.159Z,2.62
2019-04-16T02:00:47.764Z,2.70
2019-04-16T02:03:17.923Z,2.60
2019-04-16T02:05:46.663Z,3.05
2019-04-16T02:08:15.261Z,2.70
2019-04-16T02:10:43.819Z,2.95
2019-04-16T02:13:15.024Z,2.85
2019-04-16T02:15:42.791Z,3.27
2019-04-16T02:18:11.292Z,2.95
2019-04-16T02:20:39.931Z,2.75
2019-04-16T02:23:08.581Z,2.90
2019-04-16T02:25:37.132Z,3.27
2019-04-16T02:28:05.690Z,2.70
2019-04-16T02:30:39.033Z,2.55
2019-04-16T02:33:04.555Z,2.70
2019-04-16T02:35:33.164Z,2.80
2019-04-16T02:38:01.719Z,2.95
2019-04-16T02:40:30.402Z,3.20
2019-04-16T02:43:04.194Z,2.52
2019-04-16T02:45:29.290Z,2.90
2019-04-16T02:47:57.905Z,2.90
2019-04-16T02:50:33.676Z,2.80
2019-04-16T02:53:24.296Z,2.70
2019-04-16T02:55:59.313Z,2.62
2019-04-16T02:58:34.430Z,2.90
2019-04-16T03:01:20.884Z,2.80
2019-04-16T03:03:56.193Z,2.80
2019-04-16T03:06:25.267Z,2.83
2019-04-16T03:08:53.776Z,3.27
2019-04-16T03:11:22.396Z,3.02
2019-04-16T03:13:52.425Z,3.10
2019-04-16T03:16:37.637Z,3.05
2019-04-16T03:19:07.036Z,2.80
2019-04-16T03:21:35.674Z,2.90
2019-04-16T03:24:08.035Z,3.00
2019-04-16T03:26:34.726Z,2.85
2019-04-16T03:29:03.401Z,2.85
2019-04-16T03:31:31.907Z,2.98
2019-04-16T03:34:00.442Z,2.58
2019-04-16T03:36:29.508Z,2.90
2019-04-16T03:38:58.967Z,3.05
2019-04-16T03:41:27.495Z,2.45
2019-04-16T03:43:56.145Z,3.12
2019-04-16T03:46:24.754Z,2.85
2019-04-16T03:48:56.094Z,2.60
2019-04-16T03:51:23.516Z,3.02
2019-04-16T03:53:52.136Z,2.77
2019-04-16T03:56:20.775Z,2.98
2019-04-16T03:58:49.395Z,2.95
2019-04-16T04:01:18.004Z,2.62
2019-04-16T04:03:46.611Z,2.65
2019-04-16T04:06:16.226Z,3.10
2019-04-16T04:08:47.914Z,3.10
2019-04-16T04:11:15.124Z,3.15
2019-04-16T04:13:43.656Z,2.98
2019-04-16T04:16:12.630Z,2.90
2019-04-16T04:18:43.164Z,2.83
2019-04-16T04:21:11.458Z,2.75
2019-04-16T04:23:40.078Z,3.10
2019-04-16T04:26:10.136Z,2.87
2019-04-16T04:28:38.828Z,3.20
2019-04-16T04:31:07.525Z,2.85
2019-04-16T04:33:40.671Z,2.70
2019-04-16T04:36:09.309Z,3.10
2019-04-16T04:38:38.417Z,2.83
2019-04-16T04:41:08.277Z,3.25
2019-04-16T04:43:37.044Z,2.85
2019-04-16T04:46:05.854Z,3.00
2019-04-16T04:48:34.581Z,3.20
2019-04-16T04:51:06.679Z,2.52
2019-04-16T04:53:33.517Z,2.85
2019-04-16T04:56:02.120Z,3.17
2019-04-16T04:58:33.689Z,2.80
2019-04-16T05:01:01.109Z,2.95
2019-04-16T05:03:48.265Z,3.25
2019-04-16T05:06:20.047Z,3.00
2019-04-16T05:08:48.589Z,2.92
2019-04-16T05:11:17.235Z,3.10
2019-04-16T05:13:46.174Z,3.08
2019-04-16T05:16:15.876Z,2.67
2019-04-16T05:18:44.479Z,2.80
2019-04-16T05:21:17.791Z,3.30
2019-04-16T05:23:43.335Z,3.15
2019-04-16T05:26:12.137Z,3.33
2019-04-16T05:28:44.477Z,2.98
2019-04-16T05:31:11.156Z,2.92
2019-04-16T05:33:39.802Z,3.40
2019-04-16T05:36:11.031Z,2.77
2019-04-16T05:38:38.779Z,3.12
2019-04-16T05:41:13.629Z,2.77
2019-04-16T05:43:37.993Z,3.00
2019-04-16T05:46:08.954Z,3.00
2019-04-16T05:48:36.944Z,3.17
2019-04-16T05:51:05.692Z,2.85
2019-04-16T05:53:37.353Z,3.20
2019-04-16T05:56:24.097Z,3.37
2019-04-16T05:58:50.849Z,3.17
2019-04-16T06:01:32.883Z,3.30
2019-04-16T06:04:02.085Z,3.02
2019-04-16T06:06:31.699Z,3.10
2019-04-16T06:09:01.426Z,2.83
2019-04-16T06:11:35.756Z,2.80
2019-04-16T06:14:20.196Z,3.10
2019-04-16T06:17:02.634Z,2.87
2019-04-16T06:19:49.254Z,2.90
2019-04-16T06:22:30.232Z,2.77
2019-04-16T06:25:21.048Z,3.35
2019-04-16T06:27:59.132Z,3.12
2019-04-16T06:30:33.830Z,2.58
2019-04-16T06:33:05.165Z,3.20
2019-04-16T06:35:51.548Z,3.33
2019-04-16T06:38:22.852Z,3.05
2019-04-16T06:41:04.018Z,2.85
2019-04-16T06:43:37.378Z,2.95
2019-04-16T06:46:14.391Z,3.30
2019-04-16T06:48:58.483Z,3.10
2019-04-16T06:52:04.432Z,2.70
2019-04-16T06:54:54.629Z,3.50
2019-04-16T06:57:48.631Z,3.52
2019-04-16T07:00:35.340Z,3.17
2019-04-16T07:03:25.860Z,3.65
2019-04-16T07:06:23.307Z,3.35
2019-04-16T07:09:09.818Z,3.05
2019-04-16T07:11:39.742Z,3.33
2019-04-16T07:14:08.312Z,3.22
2019-04-16T07:16:37.012Z,3.40
2019-04-16T07:19:10.284Z,3.20
2019-04-16T07:21:35.956Z,3.15
2019-04-16T07:24:04.614Z,3.55
2019-04-16T07:26:33.449Z,3.27
2019-04-16T07:29:23.471Z,3.40
2019-04-16T07:32:11.282Z,3.23
2019-04-16T07:34:47.585Z,3.00
2019-04-16T07:37:33.983Z,3.40
2019-04-16T07:40:24.448Z,3.40
2019-04-16T07:43:02.217Z,3.27
2019-04-16T07:45:42.108Z,3.25
2019-04-16T07:48:44.705Z,3.25
2019-04-16T07:51:36.148Z,3.33
2019-04-16T07:54:18.788Z,3.30
2019-04-16T07:56:50.427Z,3.70
2019-04-16T07:59:19.099Z,3.30
2019-04-16T08:01:48.682Z,3.35
2019-04-16T08:04:28.337Z,3.47
2019-04-16T08:06:47.739Z,3.50
2019-04-16T08:09:16.372Z,3.50
2019-04-16T08:11:45.390Z,3.62
2019-04-16T08:14:14.721Z,3.47
2019-04-16T08:16:47.567Z,3.65
2019-04-16T08:19:15.167Z,3.67
2019-04-16T08:21:44.823Z,4.30
2019-04-16T08:24:24.457Z,4.15
2019-04-16T08:26:49.037Z,3.92
2019-04-16T08:29:17.644Z,3.65
2019-04-16T08:31:47.898Z,3.55
2019-04-16T08:34:16.772Z,3.90
2019-04-16T08:36:45.629Z,3.58
2019-04-16T08:39:14.906Z,3.50
2019-04-16T08:41:43.587Z,3.98
2019-04-16T08:44:12.318Z,3.65
2019-04-16T08:46:41.321Z,4.12
2019-04-16T08:49:10.011Z,3.67
2019-04-16T08:51:38.767Z,3.65
2019-04-16T08:54:07.575Z,4.20
2019-04-16T08:56:36.392Z,3.98
2019-04-16T08:59:09.502Z,3.52
2019-04-16T09:01:35.452Z,3.87
2019-04-16T09:04:04.371Z,4.22
2019-04-16T09:06:32.947Z,3.58
2019-04-16T09:09:13.423Z,3.75
2019-04-16T09:11:42.483Z,4.20
2019-04-16T09:14:11.197Z,4.10
2019-04-16T09:16:49.147Z,3.75
2019-04-16T09:19:18.330Z,4.03
2019-04-16T09:21:46.968Z,4.10
2019-04-16T09:24:44.283Z,4.33
2019-04-16T09:27:28.675Z,4.85
2019-04-16T09:30:22.944Z,4.30
2019-04-16T09:33:01.276Z,4.58
2019-04-16T09:35:35.033Z,4.00
2019-04-16T09:38:22.776Z,4.00
2019-04-16T09:41:09.316Z,4.25
2019-04-16T09:43:42.140Z,4.25
2019-04-16T09:46:17.602Z,4.35
2019-04-16T09:48:41.157Z,4.10
2019-04-16T09:51:09.871Z,4.58
2019-04-16T09:53:40.438Z,4.55
2019-04-16T09:56:29.561Z,4.62
2019-04-16T09:59:01.456Z,4.92
2019-04-16T10:01:48.854Z,4.72
2019-04-16T10:04:19.203Z,4.25
2019-04-16T10:06:48.426Z,5.35
2019-04-16T10:09:21.688Z,4.90
2019-04-16T10:11:47.647Z,4.42
2019-04-16T10:14:16.344Z,5.08
2019-04-16T10:16:45.069Z,5.10
2019-04-16T10:19:13.803Z,5.00
2019-04-16T10:21:42.796Z,4.53
2019-04-16T10:24:29.329Z,4.40
2019-04-16T10:26:59.992Z,5.40
2019-04-16T10:29:29.145Z,4.65
2019-04-16T10:31:57.876Z,5.00
2019-04-16T10:34:26.873Z,4.40
2019-04-16T10:36:55.589Z,4.80
2019-04-16T10:39:48.282Z,4.80
2019-04-16T10:42:50.916Z,4.95
2019-04-16T10:45:36.543Z,4.65
2019-04-16T10:48:25.531Z,4.85
2019-04-16T10:51:00.729Z,5.20
2019-04-16T10:53:40.730Z,4.60
2019-04-16T10:56:40.878Z,4.80
2019-04-16T10:59:31.376Z,4.53
2019-04-16T11:02:31.996Z,4.67
2019-04-16T11:05:20.817Z,4.90
2019-04-16T11:07:49.828Z,4.83
2019-04-16T11:10:18.618Z,4.70
2019-04-16T11:12:47.405Z,4.50
2019-04-16T11:15:20.055Z,4.95
2019-04-16T11:17:48.782Z,5.37
2019-04-16T11:20:17.764Z,4.72
2019-04-16T11:22:46.723Z,4.83
2019-04-16T11:25:15.573Z,5.22
2019-04-16T11:27:44.370Z,5.35
2019-04-16T11:30:23.485Z,5.35
2019-04-16T11:32:53.425Z,5.72
2019-04-16T11:35:23.192Z,5.15
2019-04-16T11:37:51.989Z,5.20
2019-04-16T11:40:20.617Z,5.80
2019-04-16T11:42:49.288Z,5.58
2019-04-16T11:45:18.706Z,5.08
2019-04-16T11:47:48.217Z,4.60
2019-04-16T11:50:17.216Z,6.15
2019-04-16T11:52:45.971Z,5.50
2019-04-16T11:55:14.539Z,6.03
2019-04-16T11:57:43.315Z,5.85
2019-04-16T12:00:14.644Z,5.45
2019-04-16T12:02:55.722Z,5.70
2019-04-16T12:05:34.073Z,5.60
2019-04-16T12:08:37.176Z,5.90
2019-04-16T12:11:27.717Z,5.72
2019-04-16T12:14:28.855Z,5.45
2019-04-16T12:17:09.227Z,5.97
2019-04-16T12:19:55.866Z,5.97
2019-04-16T12:22:31.075Z,5.20
2019-04-16T12:25:11.771Z,5.65
2019-04-16T12:28:06.501Z,6.03
2019-04-16T12:30:55.036Z,5.67
2019-04-16T12:33:42.856Z,5.28
2019-04-16T12:36:33.822Z,5.78
2019-04-16T12:39:19.931Z,6.70
2019-04-16T12:42:13.443Z,6.33
2019-04-16T12:44:51.585Z,5.75
2019-04-16T12:47:32.456Z,6.20
2019-04-16T12:50:29.539Z,5.67
2019-04-16T12:53:09.552Z,5.08
2019-04-16T12:55:56.019Z,5.08
2019-04-16T12:58:42.619Z,5.83
2019-04-16T13:01:23.403Z,5.15
2019-04-16T13:04:14.210Z,4.92
2019-04-16T13:06:53.427Z,4.72
2019-04-16T13:09:50.235Z,4.60
2019-04-16T13:12:32.422Z,5.00
2019-04-16T13:15:17.080Z,4.58
2019-04-16T13:18:05.246Z,4.10
2019-04-16T13:20:53.039Z,4.40
2019-04-16T13:23:49.712Z,4.50
2019-04-16T13:26:55.792Z,4.47
2019-04-16T13:29:28.970Z,5.45
2019-04-16T13:31:55.866Z,5.42
2019-04-16T13:34:24.494Z,4.92
2019-04-16T13:36:53.209Z,5.05
2019-04-16T13:39:43.757Z,4.45
2019-04-16T13:42:12.585Z,5.42
2019-04-16T13:44:44.919Z,5.33
2019-04-16T13:47:14.759Z,5.37
2019-04-16T13:50:05.574Z,5.03
2019-04-16T13:52:34.503Z,5.55
2019-04-16T13:55:21.057Z,5.75
2019-04-16T13:57:58.969Z,5.33
2019-04-16T14:00:36.940Z,5.30
2019-04-16T14:03:09.871Z,5.37
2019-04-16T14:05:38.717Z,5.60
2019-04-16T14:08:08.839Z,5.15
2019-04-16T14:10:37.516Z,4.87
2019-04-16T14:13:06.169Z,5.25
2019-04-16T14:15:40.308Z,4.75
2019-04-16T14:18:06.941Z,5.17
2019-04-16T14:20:35.579Z,5.35
2019-04-16T14:23:04.277Z,5.20
2019-04-16T14:25:32.874Z,5.00
2019-04-16T14:28:03.529Z,4.47
2019-04-16T14:30:39.566Z,4.33
2019-04-16T14:33:09.768Z,5.72
2019-04-16T14:35:40.343Z,5.12
2019-04-16T14:38:10.410Z,4.97
2019-04-16T14:40:39.662Z,4.42
2019-04-16T14:43:09.568Z,5.08
2019-04-16T14:45:57.421Z,5.05
2019-04-16T14:48:14.338Z,4.85
2019-04-16T14:50:43.097Z,5.08
2019-04-16T14:53:13.573Z,4.83
2019-04-16T14:55:59.235Z,4.60
2019-04-16T14:58:36.618Z,4.80
2019-04-16T15:01:42.606Z,4.80
2019-04-16T15:04:40.141Z,4.80
2019-04-16T15:07:28.835Z,4.62
2019-04-16T15:10:12.241Z,3.33
2019-04-16T15:13:09.308Z,3.98
2019-04-16T15:16:05.861Z,3.22
2019-04-16T15:18:29.946Z,3.00
2019-04-16T15:21:16.461Z,3.20
2019-04-16T15:24:02.118Z,3.37
2019-04-16T15:26:43.738Z,3.17
2019-04-16T15:29:17.146Z,3.60
2019-04-16T15:32:16.672Z,3.40
2019-04-16T15:34:47.592Z,3.80
2019-04-16T15:37:25.861Z,3.30
2019-04-16T15:39:59.202Z,3.60
2019-04-16T15:42:48.132Z,3.77
2019-04-16T15:45:19.149Z,2.87
2019-04-16T15:48:09.741Z,3.33
2019-04-16T15:51:07.760Z,3.40
2019-04-16T15:53:58.872Z,3.58
2019-04-16T15:56:58.741Z,3.27
2019-04-16T15:59:41.893Z,4.00
2019-04-16T16:02:25.680Z,3.33
2019-04-16T16:05:18.132Z,3.62
2019-04-16T16:08:07.906Z,3.00
2019-04-16T16:10:45.104Z,4.00
2019-04-16T16:13:12.373Z,3.70
2019-04-16T16:15:41.222Z,3.90
2019-04-16T16:18:09.908Z,4.30
2019-04-16T16:20:38.512Z,4.05
2019-04-16T16:23:07.172Z,4.17
2019-04-16T16:25:41.104Z,4.33
2019-04-16T16:28:06.699Z,4.25
2019-04-16T16:30:35.276Z,4.65
2019-04-16T16:33:04.115Z,4.55
2019-04-16T16:35:34.840Z,4.62
2019-04-16T16:38:03.449Z,4.95
2019-04-16T16:40:32.423Z,4.53
2019-04-16T16:43:04.031Z,4.92
2019-04-16T16:45:53.629Z,4.90
2019-04-16T16:48:23.335Z,5.70
2019-04-16T16:50:52.104Z,5.20
2019-04-16T16:53:44.290Z,5.42
2019-04-16T16:56:17.805Z,5.30
2019-04-16T16:59:00.483Z,5.53
2019-04-16T17:01:54.593Z,5.03
2019-04-16T17:04:33.822Z,5.20
2019-04-16T17:07:02.551Z,4.95
2019-04-16T17:09:33.404Z,5.20
2019-04-16T17:12:02.287Z,4.85
2019-04-16T17:14:36.200Z,4.80
2019-04-16T17:17:12.884Z,4.53
2019-04-16T17:19:31.665Z,4.72
2019-04-16T17:22:00.336Z,4.85
2019-04-16T17:24:29.080Z,4.75
2019-04-16T17:26:57.700Z,5.20
2019-04-16T17:29:26.434Z,4.90
2019-04-16T17:31:55.043Z,4.83
2019-04-16T17:34:23.697Z,4.80
2019-04-16T17:36:53.625Z,5.33
2019-04-16T17:39:42.570Z,5.03
2019-04-16T17:42:10.833Z,5.10
2019-04-16T17:44:57.578Z,4.90
2019-04-16T17:47:44.009Z,5.15
2019-04-16T17:50:39.297Z,5.00
2019-04-16T17:53:26.886Z,4.62
2019-04-16T17:56:13.310Z,4.67
2019-04-16T17:59:10.033Z,4.85
2019-04-16T18:02:06.880Z,4.90
2019-04-16T18:04:49.898Z,4.47
2019-04-16T18:07:43.610Z,5.05
2019-04-16T18:10:46.767Z,5.00
2019-04-16T18:13:35.165Z,5.35
2019-04-16T18:16:19.843Z,5.15
2019-04-16T18:19:02.634Z,4.80
2019-04-16T18:21:53.927Z,4.70
2019-04-16T18:24:28.104Z,4.85
2019-04-16T18:27:09.277Z,4.45
2019-04-16T18:30:05.140Z,3.90
2019-04-16T18:32:52.932Z,4.05
2019-04-16T18:35:40.684Z,4.70
2019-04-16T18:38:28.654Z,4.90
2019-04-16T18:41:16.501Z,4.30
2019-04-16T18:44:04.352Z,4.90
2019-04-16T18:46:54.974Z,4.15
2019-04-16T18:49:24.459Z,3.72
2019-04-16T18:51:53.243Z,3.77
2019-04-16T18:54:21.956Z,3.72
2019-04-16T18:56:50.677Z,4.70
2019-04-16T18:59:19.293Z,3.83
2019-04-16T19:01:53.176Z,4.20
2019-04-16T19:04:21.875Z,3.33
2019-04-16T19:06:50.578Z,3.92
2019-04-16T19:09:21.055Z,4.03
2019-04-16T19:11:49.972Z,4.00
2019-04-16T19:14:18.722Z,4.20
2019-04-16T19:16:47.360Z,4.10
2019-04-16T19:19:16.263Z,3.40
2019-04-16T19:21:45.008Z,4.03
2019-04-16T19:24:13.712Z,4.20
2019-04-16T19:26:42.469Z,4.00
2019-04-16T19:29:14.527Z,5.15
2019-04-16T19:31:41.846Z,5.53
2019-04-16T19:34:10.751Z,7.00
2019-04-16T19:36:39.495Z,5.80
2019-04-16T19:39:13.508Z,5.45
2019-04-16T19:41:41.236Z,4.67
2019-04-16T19:44:09.199Z,4.58
2019-04-16T19:46:37.838Z,4.92
2019-04-16T19:49:06.600Z,4.85
2019-04-16T19:51:38.018Z,4.45
2019-04-16T19:54:05.802Z,4.33
2019-04-16T19:56:35.567Z,4.12
2019-04-16T19:59:04.241Z,4.33
2019-04-16T20:01:35.641Z,3.67
2019-04-16T20:04:09.230Z,3.90
2019-04-16T20:06:35.510Z,3.90
2019-04-16T20:09:07.206Z,3.65
2019-04-16T20:11:37.521Z,3.50
2019-04-16T20:14:06.282Z,4.10
2019-04-16T20:16:35.041Z,3.87
2019-04-16T20:19:04.158Z,3.70
2019-04-16T20:21:37.514Z,3.90
2019-04-16T20:24:04.576Z,4.08
2019-04-16T20:26:33.615Z,3.62
2019-04-16T20:29:03.593Z,3.65
2019-04-16T20:31:32.332Z,4.37
2019-04-16T20:34:01.010Z,4.00
2019-04-16T20:36:29.805Z,3.75
2019-04-16T20:38:58.479Z,4.00
2019-04-16T20:41:27.224Z,3.70
2019-04-16T20:43:57.002Z,4.03
2019-04-16T20:46:25.740Z,4.10
2019-04-16T20:49:06.726Z,3.92
2019-04-16T20:51:26.595Z,4.10
2019-04-16T20:53:55.229Z,4.12
2019-04-16T20:56:25.256Z,3.92
2019-04-16T20:58:54.001Z,4.10
2019-04-16T21:01:33.933Z,3.95
2019-04-16T21:04:04.664Z,3.95
2019-04-16T21:06:29.254Z,4.35
2019-04-16T21:08:58.295Z,3.90
2019-04-16T21:11:27.184Z,3.87
2019-04-16T21:13:55.887Z,4.15
2019-04-16T21:16:24.571Z,3.87
2019-04-16T21:18:53.215Z,3.65
2019-04-16T21:21:23.375Z,3.80
2019-04-16T21:23:52.091Z,4.05
2019-04-16T21:26:20.791Z,4.58
2019-04-16T21:29:02.209Z,4.20
2019-04-16T21:31:34.539Z,4.10
2019-04-16T21:34:25.057Z,4.17
2019-04-16T21:37:27.067Z,4.12
2019-04-16T21:40:01.361Z,4.03
2019-04-16T21:42:34.418Z,4.00
2019-04-16T21:45:00.418Z,4.25
2019-04-16T21:47:29.191Z,4.22
2019-04-16T21:49:58.007Z,4.15
2019-04-16T21:52:26.953Z,4.08
2019-04-16T21:54:55.693Z,3.80
2019-04-16T21:57:24.244Z,3.95
2019-04-16T21:59:56.804Z,3.72
2019-04-16T22:02:28.540Z,4.08
2019-04-16T22:04:57.242Z,3.77
2019-04-16T22:07:25.914Z,4.00
2019-04-16T22:09:54.567Z,3.77
2019-04-16T22:12:23.157Z,4.70
2019-04-16T22:14:54.211Z,4.47
2019-04-16T22:17:22.120Z,4.33
2019-04-16T22:19:54.471Z,4.15
2019-04-16T22:22:21.113Z,4.15
2019-04-16T22:24:51.849Z,4.00
2019-04-16T22:27:20.064Z,4.15
2019-04-16T22:29:48.713Z,3.95
2019-04-16T22:32:17.379Z,4.87
2019-04-16T22:34:46.055Z,4.15
2019-04-16T22:37:14.644Z,4.58
2019-04-16T22:40:00.942Z,3.75
2019-04-16T22:43:05.748Z,3.70
2019-04-16T22:45:56.481Z,3.95
2019-04-16T22:48:25.217Z,4.12
2019-04-16T22:50:53.886Z,4.00
2019-04-16T22:53:22.404Z,4.40
2019-04-16T22:55:56.487Z,4.28
2019-04-16T22:58:24.874Z,4.55
2019-04-16T23:00:56.767Z,4.50
2019-04-16T23:03:25.474Z,3.92
2019-04-16T23:05:54.003Z,3.98
2019-04-16T23:08:22.596Z,4.42
2019-04-16T23:10:52.251Z,3.87
2019-04-16T23:13:20.975Z,4.35
2019-04-16T23:15:49.574Z,4.25
2019-04-16T23:18:18.402Z,4.03
2019-04-16T23:20:47.070Z,3.87
2019-04-16T23:23:18.479Z,4.62
2019-04-16T23:25:48.307Z,4.30
2019-04-16T23:28:16.809Z,4.20
2019-04-16T23:30:47.979Z,4.22
2019-04-16T23:33:15.847Z,4.15
2019-04-16T23:35:47.954Z,4.50
2019-04-16T23:38:16.592Z,4.08
2019-04-16T23:40:45.132Z,4.30
2019-04-16T23:43:30.027Z,4.28
2019-04-16T23:46:10.749Z,4.45
2019-04-16T23:48:55.182Z,4.28
2019-04-16T23:51:45.759Z,3.80
2019-04-16T23:54:20.961Z,3.92
2019-04-16T23:57:08.956Z,4.17
2019-04-16T23:59:50.023Z,4.37
